createdAt,value
2023-01-06T00:00:15.167Z,97944.81
2023-01-06T00:02:17.881Z,97945.00
2023-01-06T00:04:20.549Z,97948.44
2023-01-06T00:06:27.822Z,97954.28
2023-01-06T00:08:31.509Z,97948.59
2023-01-06T00:10:34.147Z,97967.03
2023-01-06T00:12:37.084Z,97961.75
2023-01-06T00:14:39.805Z,97967.59
2023-01-06T00:16:42.522Z,97960.28
2023-01-06T00:18:46.123Z,97960.44
2023-01-06T00:20:48.766Z,97960.78
2023-01-06T00:22:51.468Z,97962.78
2023-01-06T00:24:54.218Z,97967.81
2023-01-06T00:26:56.852Z,97972.25
2023-01-06T00:28:59.466Z,97968.97
2023-01-06T00:31:13.890Z,97976.19
2023-01-06T00:33:16.619Z,97971.69
2023-01-06T00:35:19.537Z,97979.13
2023-01-06T00:37:22.194Z,97979.09
2023-01-06T00:39:24.919Z,97983.69
2023-01-06T00:41:46.140Z,97979.81
2023-01-06T00:43:49.470Z,97985.66
2023-01-06T00:45:52.129Z,97972.63
2023-01-06T00:47:54.820Z,97973.03
2023-01-06T00:49:57.456Z,97977.66
2023-01-06T00:52:00.160Z,97983.91
2023-01-06T00:54:02.850Z,97978.22
2023-01-06T00:56:05.898Z,97980.16
2023-01-06T00:58:08.509Z,97982.31
2023-01-06T01:00:11.867Z,97985.03
2023-01-06T01:02:14.682Z,97986.16
2023-01-06T01:04:18.170Z,97985.28
2023-01-06T01:06:20.889Z,97998.00
2023-01-06T01:08:23.721Z,97985.50
2023-01-06T01:10:26.376Z,97992.09
2023-01-06T01:12:29.008Z,97990.22
2023-01-06T01:14:31.726Z,97993.94
2023-01-06T01:16:34.539Z,97997.75
2023-01-06T01:18:37.188Z,98002.66
2023-01-06T01:20:39.791Z,97997.53
2023-01-06T01:22:42.476Z,97999.25
2023-01-06T01:24:45.150Z,98003.66
2023-01-06T01:26:47.942Z,98009.00
2023-01-06T01:28:50.826Z,98009.28
2023-01-06T01:31:01.047Z,98007.56
2023-01-06T01:33:03.794Z,98007.91
2023-01-06T01:35:06.847Z,98006.56
2023-01-06T01:37:09.561Z,98009.72
2023-01-06T01:39:14.230Z,98015.50
2023-01-06T01:41:19.548Z,98021.44
2023-01-06T01:43:22.242Z,98017.41
2023-01-06T01:45:26.540Z,98010.44
2023-01-06T01:47:49.873Z,98006.91
2023-01-06T01:49:56.198Z,98013.66
2023-01-06T01:51:58.954Z,98018.97
2023-01-06T01:54:06.076Z,98025.09
2023-01-06T01:56:11.413Z,98010.34
2023-01-06T01:58:24.048Z,98009.78
2023-01-06T02:00:26.709Z,98015.38
2023-01-06T02:02:31.972Z,98013.81
2023-01-06T02:04:39.671Z,98009.09
2023-01-06T02:06:42.551Z,98014.84
2023-01-06T02:08:52.045Z,98015.22
2023-01-06T02:10:54.929Z,98017.38
2023-01-06T02:13:00.034Z,98012.47
2023-01-06T02:15:28.687Z,98019.25
2023-01-06T02:18:03.225Z,98022.41
2023-01-06T02:20:37.998Z,98031.59
2023-01-06T02:23:17.492Z,98031.75
2023-01-06T02:25:32.319Z,98039.00
2023-01-06T02:28:14.959Z,98035.72
2023-01-06T02:30:41.909Z,98035.59
2023-01-06T02:33:07.465Z,98039.72
2023-01-06T02:35:32.119Z,98043.66
2023-01-06T02:37:56.136Z,98042.03
2023-01-06T02:40:35.952Z,98037.63
2023-01-06T02:42:56.940Z,98056.13
2023-01-06T02:45:22.336Z,98058.59
2023-01-06T02:47:35.405Z,98050.28
2023-01-06T02:49:53.144Z,98057.50
2023-01-06T02:52:19.829Z,98051.13
2023-01-06T02:54:40.369Z,98049.72
2023-01-06T02:57:02.502Z,98060.34
2023-01-06T02:59:16.047Z,98051.38
2023-01-06T03:01:29.297Z,98059.53
2023-01-06T03:03:36.454Z,98055.63
2023-01-06T03:05:42.179Z,98057.25
2023-01-06T03:07:47.275Z,98056.44
2023-01-06T03:09:53.179Z,98055.28
2023-01-06T03:11:55.810Z,98054.47
2023-01-06T03:14:12.651Z,98064.94
2023-01-06T03:16:16.577Z,98064.09
2023-01-06T03:18:19.631Z,98061.50
2023-01-06T03:20:22.332Z,98072.09
2023-01-06T03:22:25.763Z,98065.41
2023-01-06T03:24:29.064Z,98060.19
2023-01-06T03:26:32.163Z,98064.09
2023-01-06T03:28:34.899Z,98075.19
2023-01-06T03:31:00.090Z,98074.69
2023-01-06T03:33:33.979Z,98079.09
2023-01-06T03:35:50.647Z,98062.75
2023-01-06T03:38:20.435Z,98077.94
2023-01-06T03:40:41.331Z,98073.03
2023-01-06T03:43:25.800Z,98063.19
2023-01-06T03:46:05.523Z,98073.81
2023-01-06T03:48:41.271Z,98076.38
2023-01-06T03:51:04.329Z,98074.44
2023-01-06T03:53:32.885Z,98081.75
2023-01-06T03:55:38.579Z,98068.97
2023-01-06T03:57:49.049Z,98078.91
2023-01-06T03:59:58.986Z,98061.94
2023-01-06T04:02:02.974Z,98071.69
2023-01-06T04:04:05.689Z,98079.66
2023-01-06T04:06:08.330Z,98070.34
2023-01-06T04:08:11.106Z,98077.16
2023-01-06T04:10:15.156Z,98065.09
2023-01-06T04:12:36.354Z,98085.94
2023-01-06T04:14:39.176Z,98077.13
2023-01-06T04:16:41.761Z,98082.63
2023-01-06T04:18:45.900Z,98077.88
2023-01-06T04:20:50.542Z,98094.25
2023-01-06T04:22:54.681Z,98088.22
2023-01-06T04:24:57.652Z,98089.13
2023-01-06T04:27:00.361Z,98099.72
2023-01-06T04:29:03.129Z,98090.03
2023-01-06T04:31:05.894Z,98093.75
2023-01-06T04:33:08.553Z,98089.31
2023-01-06T04:35:11.853Z,98088.28
2023-01-06T04:37:14.504Z,98102.78
2023-01-06T04:39:17.204Z,98099.28
2023-01-06T04:41:21.031Z,98102.34
2023-01-06T04:43:24.375Z,98104.59
2023-01-06T04:45:26.999Z,98090.56
2023-01-06T04:47:29.629Z,98091.97
2023-01-06T04:49:32.288Z,98101.41
2023-01-06T04:51:35.194Z,98094.59
2023-01-06T04:53:40.504Z,98101.19
2023-01-06T04:55:43.146Z,98100.91
2023-01-06T04:57:45.881Z,98106.38
2023-01-06T04:59:48.508Z,98112.19
2023-01-06T05:01:51.189Z,98109.44
2023-01-06T05:03:55.831Z,98116.88
2023-01-06T05:06:04.694Z,98115.91
2023-01-06T05:08:07.954Z,98125.91
2023-01-06T05:10:12.243Z,98120.69
2023-01-06T05:12:15.239Z,98127.81
2023-01-06T05:14:19.497Z,98124.84
2023-01-06T05:16:26.980Z,98129.22
2023-01-06T05:18:29.656Z,98125.94
2023-01-06T05:20:32.236Z,98127.72
2023-01-06T05:22:34.845Z,98130.19
2023-01-06T05:24:37.751Z,98127.22
2023-01-06T05:26:40.488Z,98135.28
2023-01-06T05:28:43.311Z,98130.38
2023-01-06T05:30:45.880Z,98127.41
2023-01-06T05:32:48.476Z,98138.31
2023-01-06T05:34:51.292Z,98137.00
2023-01-06T05:36:53.985Z,98137.13
2023-01-06T05:38:56.576Z,98149.09
2023-01-06T05:40:59.348Z,98139.78
2023-01-06T05:43:02.017Z,98145.00
2023-01-06T05:45:04.915Z,98138.00
2023-01-06T05:47:07.932Z,98145.56
2023-01-06T05:49:10.703Z,98140.56
2023-01-06T05:51:14.860Z,98163.03
2023-01-06T05:53:17.593Z,98139.41
2023-01-06T05:55:20.472Z,98168.38
2023-01-06T05:57:23.069Z,98166.88
2023-01-06T05:59:25.781Z,98165.09
2023-01-06T06:01:34.067Z,98160.03
2023-01-06T06:03:38.352Z,98163.59
2023-01-06T06:05:42.116Z,98161.28
2023-01-06T06:07:44.773Z,98159.91
2023-01-06T06:09:47.420Z,98166.38
2023-01-06T06:11:52.140Z,98166.38
2023-01-06T06:13:56.869Z,98157.22
2023-01-06T06:16:12.067Z,98159.53
2023-01-06T06:18:14.722Z,98160.53
2023-01-06T06:20:17.443Z,98166.56
2023-01-06T06:22:20.189Z,98167.50
2023-01-06T06:24:22.953Z,98163.13
2023-01-06T06:26:25.981Z,98177.47
2023-01-06T06:28:31.539Z,98179.94
2023-01-06T06:30:34.239Z,98182.84
2023-01-06T06:32:36.904Z,98192.81
2023-01-06T06:34:39.609Z,98184.88
2023-01-06T06:36:44.040Z,98191.06
2023-01-06T06:38:48.754Z,98191.19
2023-01-06T06:40:51.587Z,98188.19
2023-01-06T06:42:54.309Z,98188.88
2023-01-06T06:44:57.780Z,98198.84
2023-01-06T06:47:00.772Z,98208.56
2023-01-06T06:49:03.990Z,98208.41
2023-01-06T06:51:09.573Z,98206.00
2023-01-06T06:53:12.341Z,98208.59
2023-01-06T06:55:15.026Z,98221.16
2023-01-06T06:57:17.637Z,98215.69
2023-01-06T06:59:20.279Z,98234.16
2023-01-06T07:01:23.225Z,98236.34
2023-01-06T07:03:25.949Z,98232.50
2023-01-06T07:05:29.666Z,98226.59
2023-01-06T07:07:32.329Z,98238.34
2023-01-06T07:09:35.019Z,98237.44
2023-01-06T07:11:37.700Z,98242.06
2023-01-06T07:13:40.602Z,98232.75
2023-01-06T07:15:43.456Z,98240.03
2023-01-06T07:17:46.260Z,98239.34
2023-01-06T07:19:48.981Z,98245.75
2023-01-06T07:21:51.737Z,98243.72
2023-01-06T07:23:54.425Z,98248.41
2023-01-06T07:25:59.888Z,98238.94
2023-01-06T07:28:07.260Z,98248.09
2023-01-06T07:30:10.855Z,98241.94
2023-01-06T07:32:13.683Z,98244.69
2023-01-06T07:34:16.316Z,98245.22
2023-01-06T07:36:19.121Z,98246.88
2023-01-06T07:38:22.561Z,98249.59
2023-01-06T07:40:25.289Z,98257.81
2023-01-06T07:42:28.421Z,98244.97
2023-01-06T07:44:31.838Z,98248.22
2023-01-06T07:46:35.130Z,98239.03
2023-01-06T07:48:38.331Z,98232.91
2023-01-06T07:50:41.245Z,98237.41
2023-01-06T07:52:46.946Z,98243.69
2023-01-06T07:54:49.799Z,98236.16
2023-01-06T07:56:52.643Z,98236.59
2023-01-06T07:58:55.304Z,98234.00
2023-01-06T08:00:57.970Z,98240.69
2023-01-06T08:03:05.057Z,98246.13
2023-01-06T08:05:08.192Z,98240.41
2023-01-06T08:07:10.819Z,98245.19
2023-01-06T08:09:13.395Z,98242.59
2023-01-06T08:11:16.071Z,98242.88
2023-01-06T08:13:20.438Z,98236.03
2023-01-06T08:15:23.259Z,98239.00
2023-01-06T08:17:25.875Z,98256.72
2023-01-06T08:19:28.503Z,98256.94
2023-01-06T08:21:31.145Z,98238.38
2023-01-06T08:23:34.583Z,98244.78
2023-01-06T08:25:37.237Z,98265.84
2023-01-06T08:27:39.885Z,98254.53
2023-01-06T08:29:42.572Z,98252.59
2023-01-06T08:31:45.446Z,98247.72
2023-01-06T08:33:49.472Z,98252.94
2023-01-06T08:35:58.543Z,98252.50
2023-01-06T08:38:01.206Z,98251.28
2023-01-06T08:40:04.570Z,98243.28
2023-01-06T08:42:07.796Z,98266.13
2023-01-06T08:44:10.644Z,98259.56
2023-01-06T08:46:16.542Z,98267.22
2023-01-06T08:48:19.410Z,98259.66
2023-01-06T08:50:22.034Z,98257.97
2023-01-06T08:52:24.885Z,98256.44
2023-01-06T08:54:29.367Z,98269.72
2023-01-06T08:56:32.745Z,98267.13
2023-01-06T08:58:35.514Z,98263.28
2023-01-06T09:00:41.524Z,98257.69
2023-01-06T09:02:44.102Z,98257.78
2023-01-06T09:04:49.422Z,98258.88
2023-01-06T09:06:52.168Z,98249.34
2023-01-06T09:08:55.990Z,98247.84
2023-01-06T09:10:58.772Z,98259.91
2023-01-06T09:13:01.370Z,98257.94
2023-01-06T09:15:04.874Z,98244.38
2023-01-06T09:17:07.572Z,98263.66
2023-01-06T09:19:10.987Z,98264.69
2023-01-06T09:21:13.688Z,98271.69
2023-01-06T09:23:16.516Z,98268.41
2023-01-06T09:25:21.265Z,98273.06
2023-01-06T09:27:24.408Z,98272.25
2023-01-06T09:29:27.035Z,98274.94
2023-01-06T09:31:30.261Z,98268.66
2023-01-06T09:33:33.579Z,98273.19
2023-01-06T09:35:36.383Z,98271.50
2023-01-06T09:37:39.061Z,98276.59
2023-01-06T09:39:41.824Z,98270.69
2023-01-06T09:42:30.575Z,98277.31
2023-01-06T09:44:41.366Z,98274.00
2023-01-06T09:46:48.998Z,98273.69
2023-01-06T09:49:10.456Z,98281.50
2023-01-06T09:51:21.372Z,98282.53
2023-01-06T09:53:34.843Z,98272.53
2023-01-06T09:55:49.592Z,98272.00
2023-01-06T09:58:18.118Z,98287.84
2023-01-06T10:00:37.447Z,98285.69
2023-01-06T10:02:41.528Z,98286.50
2023-01-06T10:04:44.197Z,98283.13
2023-01-06T10:06:57.649Z,98276.09
2023-01-06T10:09:18.805Z,98273.78
2023-01-06T10:11:45.883Z,98264.09
2023-01-06T10:14:11.451Z,98279.03
2023-01-06T10:16:36.922Z,98286.97
2023-01-06T10:18:57.916Z,98269.72
2023-01-06T10:21:17.941Z,98272.88
2023-01-06T10:23:44.763Z,98284.66
2023-01-06T10:25:53.956Z,98283.81
2023-01-06T10:28:30.137Z,98295.28
2023-01-06T10:30:43.769Z,98271.03
2023-01-06T10:32:49.789Z,98276.25
2023-01-06T10:34:52.804Z,98272.47
2023-01-06T10:37:10.827Z,98300.81
2023-01-06T10:39:18.488Z,98306.44
2023-01-06T10:41:47.477Z,98313.84
2023-01-06T10:43:50.154Z,98296.59
2023-01-06T10:45:54.176Z,98304.41
2023-01-06T10:47:57.551Z,98309.44
2023-01-06T10:50:00.848Z,98295.59
2023-01-06T10:52:04.258Z,98293.97
2023-01-06T10:54:33.841Z,98303.03
2023-01-06T10:56:39.047Z,98306.38
2023-01-06T10:58:54.319Z,98324.94
2023-01-06T11:01:12.176Z,98334.66
2023-01-06T11:03:32.339Z,98328.22
2023-01-06T11:05:36.095Z,98319.19
2023-01-06T11:07:50.121Z,98317.53
2023-01-06T11:09:52.830Z,98314.81
2023-01-06T11:11:58.307Z,98319.09
2023-01-06T11:14:05.701Z,98307.22
2023-01-06T11:16:29.905Z,98308.84
2023-01-06T11:18:35.559Z,98313.09
2023-01-06T11:20:38.559Z,98319.66
2023-01-06T11:22:43.093Z,98312.84
2023-01-06T11:24:54.702Z,98314.06
2023-01-06T11:27:01.453Z,98314.06
2023-01-06T11:29:18.684Z,98321.84
2023-01-06T11:31:28.567Z,98321.44
2023-01-06T11:33:34.268Z,98310.50
2023-01-06T11:35:37.079Z,98311.59
2023-01-06T11:37:42.292Z,98309.16
2023-01-06T11:39:49.122Z,98315.28
2023-01-06T11:41:56.807Z,98314.19
2023-01-06T11:44:10.464Z,98319.94
2023-01-06T11:46:15.498Z,98331.66
2023-01-06T11:48:22.831Z,98336.72
2023-01-06T11:50:25.492Z,98337.31
2023-01-06T11:52:33.512Z,98337.03
2023-01-06T11:54:39.474Z,98340.06
2023-01-06T11:56:42.219Z,98329.09
2023-01-06T11:58:44.807Z,98334.84
2023-01-06T12:00:57.158Z,98335.69
2023-01-06T12:03:03.538Z,98342.38
2023-01-06T12:05:17.641Z,98332.63
2023-01-06T12:07:33.331Z,98340.59
2023-01-06T12:09:41.903Z,98349.34
2023-01-06T12:11:57.133Z,98331.28
2023-01-06T12:14:27.370Z,98347.97
2023-01-06T12:16:35.992Z,98335.66
2023-01-06T12:18:41.653Z,98335.22
2023-01-06T12:20:49.782Z,98354.91
2023-01-06T12:22:57.501Z,98345.78
2023-01-06T12:25:01.942Z,98360.69
2023-01-06T12:27:07.270Z,98362.31
2023-01-06T12:29:17.878Z,98361.63
2023-01-06T12:31:45.341Z,98374.88
2023-01-06T12:33:51.233Z,98368.59
2023-01-06T12:35:57.647Z,98360.78
2023-01-06T12:38:09.710Z,98364.47
2023-01-06T12:40:24.699Z,98358.94
2023-01-06T12:42:56.039Z,98363.03
2023-01-06T12:45:20.721Z,98368.63
2023-01-06T12:47:58.617Z,98365.59
2023-01-06T12:50:07.225Z,98366.19
2023-01-06T12:52:18.351Z,98376.72
2023-01-06T12:54:33.025Z,98376.16
2023-01-06T12:56:59.924Z,98375.47
2023-01-06T12:59:20.506Z,98382.44
2023-01-06T13:01:47.715Z,98370.22
2023-01-06T13:03:53.349Z,98369.78
2023-01-06T13:06:12.368Z,98376.81
2023-01-06T13:08:53.586Z,98381.91
2023-01-06T13:11:35.098Z,98383.63
2023-01-06T13:13:44.053Z,98393.84
2023-01-06T13:15:47.081Z,98390.81
2023-01-06T13:18:05.979Z,98393.63
2023-01-06T13:20:20.476Z,98399.53
2023-01-06T13:22:35.671Z,98407.56
2023-01-06T13:24:57.159Z,98409.00
2023-01-06T13:27:31.256Z,98408.56
2023-01-06T13:30:15.463Z,98414.50
2023-01-06T13:32:40.904Z,98403.41
2023-01-06T13:34:52.826Z,98427.03
2023-01-06T13:37:13.573Z,98409.25
2023-01-06T13:39:33.051Z,98408.66
2023-01-06T13:41:39.956Z,98420.09
2023-01-06T13:43:45.489Z,98422.50
2023-01-06T13:45:54.336Z,98430.63
2023-01-06T13:48:00.872Z,98440.56
2023-01-06T13:50:06.099Z,98449.50
2023-01-06T13:52:23.206Z,98442.78
2023-01-06T13:54:40.965Z,98454.22
2023-01-06T13:56:43.613Z,98460.47
2023-01-06T13:58:47.256Z,98454.69
2023-01-06T14:01:09.666Z,98463.53
2023-01-06T14:03:24.322Z,98481.41
2023-01-06T14:05:30.029Z,98468.59
2023-01-06T14:07:38.950Z,98473.41
2023-01-06T14:09:48.990Z,98468.34
2023-01-06T14:11:51.883Z,98465.94
2023-01-06T14:14:03.956Z,98475.91
2023-01-06T14:16:14.127Z,98478.03
2023-01-06T14:18:35.330Z,98481.09
2023-01-06T14:20:40.333Z,98479.91
2023-01-06T14:22:42.932Z,98474.72
2023-01-06T14:24:58.086Z,98470.03
2023-01-06T14:27:08.942Z,98470.25
2023-01-06T14:29:56.487Z,98478.13
2023-01-06T14:31:59.205Z,98477.50
2023-01-06T14:34:03.543Z,98479.88
2023-01-06T14:36:15.054Z,98481.47
2023-01-06T14:38:25.076Z,98485.97
2023-01-06T14:40:31.769Z,98495.50
2023-01-06T14:42:42.235Z,98486.44
2023-01-06T14:44:48.652Z,98496.16
2023-01-06T14:46:55.464Z,98491.13
2023-01-06T14:49:05.321Z,98504.41
2023-01-06T14:51:13.696Z,98496.63
2023-01-06T14:53:24.993Z,98499.31
2023-01-06T14:55:31.642Z,98494.38
2023-01-06T14:57:39.455Z,98518.56
2023-01-06T14:59:41.972Z,98522.81
2023-01-06T15:01:54.283Z,98508.22
2023-01-06T15:03:59.998Z,98512.81
2023-01-06T15:06:21.472Z,98525.94
2023-01-06T15:08:24.023Z,98520.53
2023-01-06T15:10:28.362Z,98523.91
2023-01-06T15:12:33.022Z,98524.53
2023-01-06T15:14:35.626Z,98534.50
2023-01-06T15:16:41.316Z,98530.97
2023-01-06T15:18:46.405Z,98534.25
2023-01-06T15:20:49.033Z,98527.31
2023-01-06T15:22:53.699Z,98527.94
2023-01-06T15:24:56.813Z,98534.97
2023-01-06T15:27:07.771Z,98535.41
2023-01-06T15:29:17.213Z,98532.66
2023-01-06T15:31:27.339Z,98536.59
2023-01-06T15:33:38.992Z,98534.19
2023-01-06T15:35:43.413Z,98534.09
2023-01-06T15:37:48.707Z,98546.28
2023-01-06T15:39:52.387Z,98541.69
2023-01-06T15:41:56.428Z,98546.94
2023-01-06T15:44:02.718Z,98546.84
2023-01-06T15:46:10.171Z,98553.78
2023-01-06T15:48:19.548Z,98544.59
2023-01-06T15:50:28.819Z,98551.03
2023-01-06T15:52:39.226Z,98550.13
2023-01-06T15:54:45.782Z,98548.56
2023-01-06T15:56:48.472Z,98554.88
2023-01-06T15:58:53.041Z,98558.50
2023-01-06T16:01:17.402Z,98568.44
2023-01-06T16:03:23.082Z,98574.41
2023-01-06T16:05:41.235Z,98584.88
2023-01-06T16:07:45.699Z,98572.06
2023-01-06T16:09:48.411Z,98580.34
2023-01-06T16:12:16.557Z,98580.22
2023-01-06T16:14:38.003Z,98581.97
2023-01-06T16:16:40.848Z,98586.56
2023-01-06T16:18:44.723Z,98595.72
2023-01-06T16:20:49.668Z,98596.75
2023-01-06T16:22:55.334Z,98594.47
2023-01-06T16:25:00.673Z,98593.78
2023-01-06T16:27:05.991Z,98592.84
2023-01-06T16:29:29.526Z,98598.41
2023-01-06T16:31:35.223Z,98591.41
2023-01-06T16:33:44.463Z,98606.88
2023-01-06T16:35:52.450Z,98587.81
2023-01-06T16:37:55.248Z,98605.44
2023-01-06T16:40:00.729Z,98602.47
2023-01-06T16:42:26.002Z,98611.94
2023-01-06T16:44:31.197Z,98600.94
2023-01-06T16:46:33.928Z,98589.66
2023-01-06T16:48:42.835Z,98604.84
2023-01-06T16:50:50.827Z,98606.72
2023-01-06T16:53:09.933Z,98611.97
2023-01-06T16:55:15.062Z,98605.16
2023-01-06T16:57:17.790Z,98599.41
2023-01-06T16:59:22.441Z,98606.78
2023-01-06T17:01:26.996Z,98608.34
2023-01-06T17:03:31.663Z,98596.38
2023-01-06T17:05:35.371Z,98592.25
2023-01-06T17:07:38.092Z,98605.03
2023-01-06T17:09:45.828Z,98595.28
2023-01-06T17:11:53.004Z,98618.78
2023-01-06T17:14:01.036Z,98607.66
2023-01-06T17:16:31.350Z,98620.56
2023-01-06T17:18:34.460Z,98613.94
2023-01-06T17:20:37.124Z,98621.69
2023-01-06T17:22:39.846Z,98611.88
2023-01-06T17:24:42.472Z,98616.63
2023-01-06T17:27:08.022Z,98623.22
2023-01-06T17:29:16.409Z,98633.47
2023-01-06T17:31:31.101Z,98620.13
2023-01-06T17:33:33.983Z,98622.06
2023-01-06T17:35:36.627Z,98618.69
2023-01-06T17:37:39.254Z,98610.34
2023-01-06T17:39:44.796Z,98631.88
2023-01-06T17:41:47.543Z,98617.34
2023-01-06T17:43:50.288Z,98629.41
2023-01-06T17:45:53.452Z,98629.59
2023-01-06T17:47:57.304Z,98640.84
2023-01-06T17:50:01.750Z,98629.59
2023-01-06T17:52:40.254Z,98630.53
2023-01-06T17:55:08.685Z,98632.00
2023-01-06T17:57:19.682Z,98638.56
2023-01-06T17:59:22.305Z,98643.09
2023-01-06T18:01:29.142Z,98649.19
2023-01-06T18:03:33.869Z,98656.84
2023-01-06T18:05:36.412Z,98647.53
2023-01-06T18:07:39.497Z,98648.25
2023-01-06T18:09:42.225Z,98649.56
2023-01-06T18:11:50.355Z,98661.25
2023-01-06T18:13:53.848Z,98657.94
2023-01-06T18:16:07.262Z,98652.78
2023-01-06T18:18:28.999Z,98662.47
2023-01-06T18:20:31.625Z,98662.69
2023-01-06T18:22:35.719Z,98660.91
2023-01-06T18:24:40.848Z,98665.34
2023-01-06T18:26:58.176Z,98657.00
2023-01-06T18:29:13.189Z,98669.88
2023-01-06T18:31:17.593Z,98662.97
2023-01-06T18:33:20.924Z,98658.53
2023-01-06T18:35:27.849Z,98664.00
2023-01-06T18:37:33.617Z,98651.84
2023-01-06T18:39:41.990Z,98666.97
2023-01-06T18:41:44.577Z,98664.53
2023-01-06T18:43:47.195Z,98664.28
2023-01-06T18:45:53.432Z,98662.66
2023-01-06T18:48:00.852Z,98669.03
2023-01-06T18:50:28.100Z,98681.72
2023-01-06T18:52:44.466Z,98678.44
2023-01-06T18:54:48.404Z,98670.25
2023-01-06T18:56:52.442Z,98678.72
2023-01-06T18:58:57.759Z,98682.41
2023-01-06T19:01:03.646Z,98705.53
2023-01-06T19:03:39.213Z,98688.38
2023-01-06T19:05:43.246Z,98684.16
2023-01-06T19:07:45.931Z,98687.13
2023-01-06T19:09:50.173Z,98683.22
2023-01-06T19:12:21.440Z,98691.91
2023-01-06T19:14:24.165Z,98673.41
2023-01-06T19:16:58.842Z,98694.13
2023-01-06T19:19:19.258Z,98683.59
2023-01-06T19:21:23.084Z,98695.31
2023-01-06T19:23:28.060Z,98689.78
2023-01-06T19:25:44.411Z,98699.38
2023-01-06T19:27:55.974Z,98704.44
2023-01-06T19:30:30.039Z,98720.63
2023-01-06T19:32:36.395Z,98705.06
2023-01-06T19:34:39.167Z,98717.75
2023-01-06T19:36:59.985Z,98721.28
2023-01-06T19:39:20.230Z,98718.94
2023-01-06T19:41:34.073Z,98733.47
2023-01-06T19:43:36.710Z,98733.28
2023-01-06T19:45:39.348Z,98750.31
2023-01-06T19:47:42.319Z,98735.78
2023-01-06T19:49:50.003Z,98737.41
2023-01-06T19:51:54.844Z,98738.75
2023-01-06T19:54:03.723Z,98747.38
2023-01-06T19:56:18.033Z,98756.13
2023-01-06T19:58:34.140Z,98749.50
2023-01-06T20:00:47.277Z,98755.75
2023-01-06T20:02:51.854Z,98764.34
2023-01-06T20:04:54.776Z,98760.63
2023-01-06T20:06:57.427Z,98763.41
2023-01-06T20:09:00.062Z,98758.72
2023-01-06T20:11:02.700Z,98766.00
2023-01-06T20:13:06.133Z,98756.41
2023-01-06T20:15:09.352Z,98760.63
2023-01-06T20:17:12.755Z,98753.66
2023-01-06T20:19:16.156Z,98760.63
2023-01-06T20:21:18.907Z,98763.88
2023-01-06T20:23:21.705Z,98761.50
2023-01-06T20:25:24.383Z,98756.13
2023-01-06T20:27:27.055Z,98766.38
2023-01-06T20:29:29.638Z,98764.81
2023-01-06T20:31:32.692Z,98756.97
2023-01-06T20:33:35.369Z,98760.00
2023-01-06T20:35:38.352Z,98764.41
2023-01-06T20:37:41.127Z,98777.72
2023-01-06T20:39:43.721Z,98766.78
2023-01-06T20:41:46.495Z,98773.50
2023-01-06T20:43:49.074Z,98764.13
2023-01-06T20:45:51.819Z,98771.13
2023-01-06T20:47:54.469Z,98774.53
2023-01-06T20:49:57.214Z,98775.25
2023-01-06T20:51:59.812Z,98783.28
2023-01-06T20:54:02.454Z,98774.84
2023-01-06T20:56:05.493Z,98769.56
2023-01-06T20:58:08.190Z,98776.47
2023-01-06T21:00:12.219Z,98768.09
2023-01-06T21:02:14.955Z,98781.63
2023-01-06T21:04:17.773Z,98774.91
2023-01-06T21:06:20.518Z,98763.41
2023-01-06T21:08:23.159Z,98775.69
2023-01-06T21:10:26.298Z,98787.44
2023-01-06T21:12:28.941Z,98777.03
2023-01-06T21:14:32.471Z,98783.41
2023-01-06T21:16:35.173Z,98787.81
2023-01-06T21:18:37.822Z,98788.72
2023-01-06T21:20:40.561Z,98785.53
2023-01-06T21:22:43.117Z,98783.84
2023-01-06T21:24:45.744Z,98790.50
2023-01-06T21:26:48.491Z,98794.53
2023-01-06T21:28:51.071Z,98802.91
2023-01-06T21:30:53.937Z,98793.44
2023-01-06T21:32:56.551Z,98802.91
2023-01-06T21:34:59.136Z,98796.91
2023-01-06T21:37:01.817Z,98799.31
2023-01-06T21:39:07.452Z,98815.50
2023-01-06T21:41:28.703Z,98821.50
2023-01-06T21:43:31.302Z,98826.56
2023-01-06T21:45:33.999Z,98829.13
2023-01-06T21:47:36.594Z,98839.16
2023-01-06T21:49:42.583Z,98830.41
2023-01-06T21:51:47.480Z,98847.34
2023-01-06T21:53:50.082Z,98847.13
2023-01-06T21:55:54.819Z,98860.56
2023-01-06T21:57:57.698Z,98844.00
2023-01-06T22:00:00.303Z,98833.16
2023-01-06T22:02:03.284Z,98834.41
2023-01-06T22:04:05.996Z,98844.38
2023-01-06T22:06:09.949Z,98850.28
2023-01-06T22:08:13.363Z,98833.41
2023-01-06T22:10:19.007Z,98838.47
2023-01-06T22:12:22.045Z,98828.25
2023-01-06T22:14:25.749Z,98832.66
2023-01-06T22:16:28.675Z,98835.25
2023-01-06T22:18:33.053Z,98828.63
2023-01-06T22:20:36.469Z,98835.44
2023-01-06T22:22:40.167Z,98825.13
2023-01-06T22:24:42.915Z,98824.31
2023-01-06T22:26:45.671Z,98834.63
2023-01-06T22:28:48.310Z,98837.28
2023-01-06T22:30:52.900Z,98832.31
2023-01-06T22:32:55.616Z,98843.47
2023-01-06T22:34:58.187Z,98848.53
2023-01-06T22:37:00.968Z,98839.03
2023-01-06T22:39:04.304Z,98852.56
2023-01-06T22:41:07.699Z,98851.00
2023-01-06T22:43:10.348Z,98849.97
2023-01-06T22:45:13.426Z,98854.44
2023-01-06T22:47:16.180Z,98834.50
2023-01-06T22:49:18.790Z,98850.72
2023-01-06T22:51:21.444Z,98837.94
2023-01-06T22:53:24.066Z,98851.72
2023-01-06T22:55:26.659Z,98844.94
2023-01-06T22:57:29.443Z,98853.78
2023-01-06T22:59:32.128Z,98860.88
2023-01-06T23:01:34.841Z,98861.88
2023-01-06T23:03:37.862Z,98873.78
2023-01-06T23:05:40.547Z,98868.78
2023-01-06T23:07:44.253Z,98879.31
2023-01-06T23:09:46.921Z,98876.94
2023-01-06T23:11:49.741Z,98877.84
2023-01-06T23:13:55.571Z,98876.94
2023-01-06T23:16:10.372Z,98867.16
2023-01-06T23:18:13.200Z,98875.25
2023-01-06T23:20:15.885Z,98869.91
2023-01-06T23:22:18.562Z,98870.28
2023-01-06T23:24:21.195Z,98878.50
2023-01-06T23:26:29.925Z,98887.22
2023-01-06T23:28:33.161Z,98892.38
2023-01-06T23:30:35.716Z,98890.72
2023-01-06T23:32:38.355Z,98883.00
2023-01-06T23:34:40.905Z,98891.25
2023-01-06T23:36:44.113Z,98886.19
2023-01-06T23:38:47.315Z,98888.59
2023-01-06T23:40:49.978Z,98879.47
2023-01-06T23:42:54.127Z,98893.91
2023-01-06T23:44:56.785Z,98888.22
2023-01-06T23:46:59.451Z,98876.34
2023-01-06T23:49:02.293Z,98896.22
2023-01-06T23:51:06.326Z,98895.38
2023-01-06T23:53:08.945Z,98886.44
2023-01-06T23:55:11.814Z,98893.06
2023-01-06T23:57:16.341Z,98890.78
2023-01-06T23:59:19.096Z,98897.47
